createdAt,value
2019-04-07T00:02:25.276Z,98905.11
2019-04-07T00:04:53.470Z,98904.14
2019-04-07T00:07:20.761Z,98908.75
2019-04-07T00:09:48.051Z,98913.23
2019-04-07T00:12:15.301Z,98914.36
2019-04-07T00:14:42.519Z,98915.50
2019-04-07T00:17:10.479Z,98921.03
2019-04-07T00:19:39.503Z,98922.98
2019-04-07T00:22:06.943Z,98921.17
2019-04-07T00:24:36.793Z,98926.66
2019-04-07T00:27:04.288Z,98924.74
2019-04-07T00:29:31.470Z,98925.28
2019-04-07T00:32:03.546Z,98926.72
2019-04-07T00:34:37.039Z,98935.19
2019-04-07T00:37:05.528Z,98934.42
2019-04-07T00:39:34.608Z,98939.73
2019-04-07T00:42:02.014Z,98942.59
2019-04-07T00:44:30.018Z,98948.75
2019-04-07T00:46:58.642Z,98945.29
2019-04-07T00:49:26.029Z,98946.30
2019-04-07T00:51:55.847Z,98942.16
2019-04-07T00:54:22.974Z,98942.73
2019-04-07T00:56:50.171Z,98943.92
2019-04-07T00:59:17.491Z,98945.22
2019-04-07T01:01:45.871Z,98952.86
2019-04-07T01:04:14.436Z,98945.12
2019-04-07T01:06:41.595Z,98941.22
2019-04-07T01:09:11.259Z,98944.70
2019-04-07T01:11:39.644Z,98942.37
2019-04-07T01:14:09.341Z,98941.07
2019-04-07T01:16:37.429Z,98945.11
2019-04-07T01:19:04.678Z,98938.25
2019-04-07T01:21:31.673Z,98942.05
2019-04-07T01:23:59.070Z,98944.39
2019-04-07T01:26:26.594Z,98945.33
2019-04-07T01:28:56.125Z,98945.98
2019-04-07T01:31:23.265Z,98939.30
2019-04-07T01:33:52.129Z,98940.19
2019-04-07T01:36:19.319Z,98939.52
2019-04-07T01:38:47.517Z,98938.11
2019-04-07T01:41:26.440Z,98937.20
2019-04-07T01:44:16.119Z,98936.73
2019-04-07T01:46:58.986Z,98936.48
2019-04-07T01:49:44.494Z,98936.63
2019-04-07T01:52:22.701Z,98925.94
2019-04-07T01:54:55.939Z,98929.00
2019-04-07T01:57:49.255Z,98934.51
2019-04-07T02:00:39.128Z,98938.66
2019-04-07T02:03:35.687Z,98937.47
2019-04-07T02:06:27.584Z,98943.59
2019-04-07T02:09:14.382Z,98944.45
2019-04-07T02:12:00.563Z,98938.30
2019-04-07T02:15:02.399Z,98936.88
2019-04-07T02:17:39.152Z,98935.85
2019-04-07T02:20:32.373Z,98932.25
2019-04-07T02:23:10.186Z,98939.78
2019-04-07T02:25:57.019Z,98936.66
2019-04-07T02:28:38.680Z,98939.80
2019-04-07T02:31:25.337Z,98934.80
2019-04-07T02:34:00.123Z,98940.59
2019-04-07T02:36:40.787Z,98940.92
2019-04-07T02:39:15.267Z,98939.48
2019-04-07T02:42:00.714Z,98945.50
2019-04-07T02:44:50.819Z,98942.42
2019-04-07T02:47:41.674Z,98943.52
2019-04-07T02:50:33.794Z,98951.14
2019-04-07T02:53:27.422Z,98954.44
2019-04-07T02:56:09.973Z,98956.92
2019-04-07T02:58:44.425Z,98956.92
2019-04-07T03:01:33.685Z,98952.37
2019-04-07T03:04:16.184Z,98954.46
2019-04-07T03:07:05.600Z,98949.05
2019-04-07T03:09:58.053Z,98959.06
2019-04-07T03:12:33.848Z,98950.00
2019-04-07T03:15:09.107Z,98953.16
2019-04-07T03:17:49.772Z,98956.48
2019-04-07T03:20:29.700Z,98953.08
2019-04-07T03:23:16.310Z,98956.12
2019-04-07T03:26:00.860Z,98958.48
2019-04-07T03:28:47.423Z,98965.45
2019-04-07T03:31:45.442Z,98960.51
2019-04-07T03:34:33.402Z,98961.56
2019-04-07T03:37:35.079Z,98961.70
2019-04-07T03:40:02.461Z,98963.23
2019-04-07T03:42:41.928Z,98959.92
2019-04-07T03:45:28.790Z,98961.59
2019-04-07T03:48:14.576Z,98958.17
2019-04-07T03:50:50.837Z,98952.53
2019-04-07T03:53:53.954Z,98955.92
2019-04-07T03:56:49.943Z,98960.86
2019-04-07T03:59:41.437Z,98953.70
2019-04-07T04:02:21.635Z,98947.72
2019-04-07T04:05:16.435Z,98950.99
2019-04-07T04:08:02.250Z,98953.34
2019-04-07T04:10:36.426Z,98957.23
2019-04-07T04:13:25.991Z,98951.48
2019-04-07T04:16:24.936Z,98948.52
2019-04-07T04:18:54.566Z,98954.72
2019-04-07T04:21:22.724Z,98954.72
2019-04-07T04:23:49.759Z,98956.05
2019-04-07T04:26:17.595Z,98955.34
2019-04-07T04:28:44.731Z,98954.64
2019-04-07T04:31:11.771Z,98961.71
2019-04-07T04:33:39.567Z,98960.86
2019-04-07T04:36:06.662Z,98962.16
2019-04-07T04:38:33.738Z,98966.63
2019-04-07T04:41:01.342Z,98969.45
2019-04-07T04:43:28.541Z,98968.75
2019-04-07T04:45:56.822Z,98974.30
2019-04-07T04:48:23.926Z,98979.90
2019-04-07T04:50:50.950Z,98985.25
2019-04-07T04:53:19.233Z,98991.27
2019-04-07T04:55:47.378Z,98981.92
2019-04-07T04:58:15.282Z,98991.31
2019-04-07T05:00:42.864Z,98995.05
2019-04-07T05:03:10.032Z,98998.62
2019-04-07T05:05:37.939Z,99001.95
2019-04-07T05:08:05.479Z,99007.44
2019-04-07T05:10:35.846Z,99015.27
2019-04-07T05:13:02.962Z,99013.42
2019-04-07T05:15:32.544Z,99018.85
2019-04-07T05:18:00.405Z,99020.05
2019-04-07T05:20:27.539Z,99016.53
2019-04-07T05:22:54.586Z,99019.01
2019-04-07T05:25:22.270Z,99030.90
2019-04-07T05:27:49.518Z,99028.97
2019-04-07T05:30:16.874Z,99028.00
2019-04-07T05:32:44.341Z,99029.28
2019-04-07T05:35:13.197Z,99034.46
2019-04-07T05:37:40.622Z,99037.28
2019-04-07T05:40:08.060Z,99035.42
2019-04-07T05:42:35.470Z,99036.94
2019-04-07T05:45:03.069Z,99042.34
2019-04-07T05:47:31.821Z,99041.11
2019-04-07T05:49:59.973Z,99040.11
2019-04-07T05:52:29.692Z,99043.87
2019-04-07T05:54:57.872Z,99045.12
2019-04-07T05:57:25.307Z,99054.28
2019-04-07T05:59:53.742Z,99052.48
2019-04-07T06:02:22.401Z,99057.47
2019-04-07T06:04:49.453Z,99053.94
2019-04-07T06:07:16.530Z,99053.84
2019-04-07T06:09:43.783Z,99056.70
2019-04-07T06:12:12.235Z,99066.05
2019-04-07T06:14:40.126Z,99063.20
2019-04-07T06:17:07.379Z,99073.73
2019-04-07T06:19:37.519Z,99069.87
2019-04-07T06:22:05.467Z,99069.38
2019-04-07T06:24:35.022Z,99081.80
2019-04-07T06:27:02.292Z,99081.98
2019-04-07T06:29:30.092Z,99079.24
2019-04-07T06:31:57.826Z,99086.28
2019-04-07T06:34:25.785Z,99089.50
2019-04-07T06:36:55.471Z,99086.44
2019-04-07T06:39:23.188Z,99084.16
2019-04-07T06:41:52.414Z,99080.38
2019-04-07T06:44:22.454Z,99086.92
2019-04-07T06:47:21.422Z,99089.38
2019-04-07T06:50:07.358Z,99092.71
2019-04-07T06:52:57.693Z,99090.80
2019-04-07T06:55:38.122Z,99091.81
2019-04-07T06:58:38.532Z,99091.12
2019-04-07T07:01:24.536Z,99084.66
2019-04-07T07:04:22.301Z,99086.62
2019-04-07T07:07:11.724Z,99088.18
2019-04-07T07:10:02.102Z,99089.69
2019-04-07T07:12:43.907Z,99090.00
2019-04-07T07:15:46.125Z,99086.87
2019-04-07T07:18:54.730Z,99089.05
2019-04-07T07:21:34.060Z,99083.94
2019-04-07T07:24:00.130Z,99088.20
2019-04-07T07:26:28.284Z,99090.53
2019-04-07T07:28:56.005Z,99075.94
2019-04-07T07:31:25.431Z,99082.66
2019-04-07T07:33:52.791Z,99081.47
2019-04-07T07:36:22.704Z,99083.08
2019-04-07T07:38:59.993Z,99084.83
2019-04-07T07:41:22.370Z,99085.95
2019-04-07T07:43:49.703Z,99090.21
2019-04-07T07:46:20.574Z,99088.22
2019-04-07T07:48:47.545Z,99099.38
2019-04-07T07:51:15.371Z,99086.27
2019-04-07T07:53:44.980Z,99091.74
2019-04-07T07:56:13.601Z,99091.67
2019-04-07T07:58:41.481Z,99097.42
2019-04-07T08:01:12.259Z,99098.94
2019-04-07T08:03:40.509Z,99104.09
2019-04-07T08:06:08.374Z,99101.41
2019-04-07T08:08:36.341Z,99102.83
2019-04-07T08:11:04.525Z,99099.08
2019-04-07T08:13:32.479Z,99098.48
2019-04-07T08:16:00.448Z,99098.63
2019-04-07T08:18:27.649Z,99103.97
2019-04-07T08:20:54.824Z,99106.24
2019-04-07T08:23:22.054Z,99109.80
2019-04-07T08:25:53.473Z,99104.81
2019-04-07T08:28:22.421Z,99100.28
2019-04-07T08:30:51.577Z,99101.86
2019-04-07T08:33:18.975Z,99110.03
2019-04-07T08:35:46.940Z,99109.93
2019-04-07T08:38:18.644Z,99105.34
2019-04-07T08:40:43.503Z,99105.11
2019-04-07T08:43:10.549Z,99104.64
2019-04-07T08:45:39.760Z,99114.92
2019-04-07T08:48:09.609Z,99107.73
2019-04-07T08:50:37.428Z,99108.69
2019-04-07T08:53:04.770Z,99108.02
2019-04-07T08:55:31.778Z,99111.05
2019-04-07T08:58:03.545Z,99110.98
2019-04-07T09:00:35.036Z,99116.84
2019-04-07T09:03:07.670Z,99109.98
2019-04-07T09:05:31.359Z,99108.91
2019-04-07T09:07:59.340Z,99108.76
2019-04-07T09:10:33.519Z,99114.04
2019-04-07T09:13:02.974Z,99109.72
2019-04-07T09:15:43.060Z,99113.70
2019-04-07T09:18:19.233Z,99111.56
2019-04-07T09:20:51.863Z,99115.61
2019-04-07T09:23:29.419Z,99102.66
2019-04-07T09:26:22.916Z,99112.10
2019-04-07T09:28:57.404Z,99110.57
2019-04-07T09:31:50.848Z,99109.28
2019-04-07T09:34:38.033Z,99114.08
2019-04-07T09:37:34.094Z,99104.23
2019-04-07T09:40:09.284Z,99110.37
2019-04-07T09:47:28.188Z,99112.27
2019-04-07T09:50:27.770Z,99113.03
2019-04-07T09:53:17.972Z,99105.56
2019-04-07T09:56:18.389Z,99097.46
2019-04-07T09:59:01.661Z,99095.36
2019-04-07T10:02:06.793Z,99093.09
2019-04-07T10:04:59.569Z,99095.53
2019-04-07T10:07:46.839Z,99094.61
2019-04-07T10:10:34.115Z,99094.15
2019-04-07T10:13:16.321Z,99082.25
2019-04-07T10:16:18.565Z,99093.63
2019-04-07T10:19:14.340Z,99085.05
2019-04-07T10:22:17.965Z,99089.88
2019-04-07T10:24:58.283Z,99088.30
2019-04-07T10:27:44.082Z,99095.94
2019-04-07T10:30:31.662Z,99094.17
2019-04-07T10:33:23.750Z,99092.73
2019-04-07T10:39:26.295Z,99088.98
2019-04-07T10:42:08.792Z,99086.82
2019-04-07T10:45:10.793Z,99090.31
2019-04-07T10:48:16.529Z,99086.05
2019-04-07T10:51:05.612Z,99088.09
2019-04-07T10:53:47.256Z,99082.48
2019-04-07T10:56:28.853Z,99082.98
2019-04-07T10:59:05.670Z,99085.86
2019-04-07T11:01:51.337Z,99084.88
2019-04-07T11:04:49.170Z,99078.13
2019-04-07T11:07:26.812Z,99079.03
2019-04-07T11:10:12.695Z,99087.74
2019-04-07T11:12:59.357Z,99090.09
2019-04-07T11:15:44.725Z,99088.70
2019-04-07T11:18:40.299Z,99096.38
2019-04-07T11:21:33.836Z,99081.45
2019-04-07T11:24:31.163Z,99092.39
2019-04-07T11:27:59.555Z,99093.70
2019-04-07T11:30:47.245Z,99088.17
2019-04-07T11:33:19.368Z,99090.08
2019-04-07T11:36:25.453Z,99085.18
2019-04-07T11:39:15.095Z,99077.03
2019-04-07T11:42:17.186Z,99078.16
2019-04-07T11:45:16.649Z,99081.20
2019-04-07T11:47:50.141Z,99080.30
2019-04-07T11:50:25.585Z,99073.72
2019-04-07T11:53:14.239Z,99071.35
2019-04-07T11:56:09.909Z,99076.72
2019-04-07T11:58:52.926Z,99074.11
2019-04-07T12:01:38.260Z,99068.64
2019-04-07T12:04:24.031Z,99068.34
2019-04-07T12:07:02.435Z,99064.49
2019-04-07T12:09:55.248Z,99058.84
2019-04-07T12:12:47.238Z,99062.72
2019-04-07T12:15:40.072Z,99065.52
2019-04-07T12:18:28.742Z,99066.55
2019-04-07T12:21:19.344Z,99061.73
2019-04-07T12:23:58.388Z,99065.48
2019-04-07T12:26:47.920Z,99068.84
2019-04-07T12:29:34.275Z,99064.36
2019-04-07T12:32:20.268Z,99062.62
2019-04-07T12:35:13.155Z,99067.36
2019-04-07T12:38:10.074Z,99061.72
2019-04-07T12:41:12.532Z,99061.06
2019-04-07T12:43:48.498Z,99056.05
2019-04-07T12:46:22.627Z,99059.02
2019-04-07T12:49:18.875Z,99059.06
2019-04-07T12:52:05.582Z,99048.23
2019-04-07T12:54:48.186Z,99049.92
2019-04-07T12:57:35.432Z,99054.75
2019-04-07T13:00:23.915Z,99049.91
2019-04-07T13:02:58.625Z,99051.16
2019-04-07T13:05:46.335Z,99045.95
2019-04-07T13:08:27.410Z,99046.46
2019-04-07T13:11:25.468Z,99045.86
2019-04-07T13:14:03.621Z,99041.55
2019-04-07T13:16:49.211Z,99043.33
2019-04-07T13:19:50.288Z,99038.29
2019-04-07T13:22:45.924Z,99039.61
2019-04-07T13:25:34.276Z,99037.28
2019-04-07T13:28:14.185Z,99031.95
2019-04-07T13:30:50.113Z,99029.17
2019-04-07T13:33:26.439Z,99031.18
2019-04-07T13:36:10.401Z,99030.86
2019-04-07T13:38:43.181Z,99029.98
2019-04-07T13:41:40.836Z,99035.80
2019-04-07T13:44:17.216Z,99040.64
2019-04-07T13:47:20.507Z,99034.61
2019-04-07T13:49:59.802Z,99031.50
2019-04-07T13:52:34.644Z,99035.74
2019-04-07T13:55:19.445Z,99031.86
2019-04-07T13:58:11.972Z,99033.88
2019-04-07T14:00:48.366Z,99040.64
2019-04-07T14:03:25.678Z,99042.12
2019-04-07T14:06:18.344Z,99034.51
2019-04-07T14:09:07.710Z,99036.52
2019-04-07T14:11:58.811Z,99030.25
2019-04-07T14:14:41.103Z,99033.67
2019-04-07T14:17:16.513Z,99036.12
2019-04-07T14:20:15.100Z,99037.88
2019-04-07T14:23:01.023Z,99038.39
2019-04-07T14:25:48.338Z,99036.84
2019-04-07T14:28:42.311Z,99038.55
2019-04-07T14:31:37.944Z,99043.33
2019-04-07T14:34:41.928Z,99045.47
2019-04-07T14:37:27.474Z,99048.81
2019-04-07T14:40:20.382Z,99044.59
2019-04-07T14:43:11.241Z,99039.52
2019-04-07T14:46:04.441Z,99042.72
2019-04-07T14:48:50.201Z,99042.42
2019-04-07T14:51:35.913Z,99041.56
2019-04-07T14:54:16.396Z,99043.43
2019-04-07T14:56:58.809Z,99047.15
2019-04-07T14:59:48.531Z,99042.66
2019-04-07T15:02:17.563Z,99040.94
2019-04-07T15:04:54.719Z,99043.41
2019-04-07T15:07:41.992Z,99043.05
2019-04-07T15:10:16.281Z,99036.41
2019-04-07T15:12:45.739Z,99049.33
2019-04-07T15:15:13.923Z,99043.19
2019-04-07T15:17:43.624Z,99043.69
2019-04-07T15:20:12.829Z,99045.84
2019-04-07T15:22:44.871Z,99040.69
2019-04-07T15:25:11.897Z,99045.81
2019-04-07T15:27:40.132Z,99044.89
2019-04-07T15:30:10.573Z,99045.45
2019-04-07T15:32:36.900Z,99045.97
2019-04-07T15:35:05.130Z,99041.46
2019-04-07T15:37:32.533Z,99042.56
2019-04-07T15:40:02.691Z,99043.05
2019-04-07T15:42:34.970Z,99043.63
2019-04-07T15:44:57.697Z,99047.77
2019-04-07T15:47:26.639Z,99048.87
2019-04-07T15:49:54.080Z,99048.11
2019-04-07T15:52:21.832Z,99046.69
2019-04-07T15:54:49.326Z,99051.33
2019-04-07T15:57:20.896Z,99040.81
2019-04-07T15:59:46.082Z,99047.45
2019-04-07T16:02:16.126Z,99047.66
2019-04-07T16:04:43.965Z,99055.98
2019-04-07T16:07:12.247Z,99057.05
2019-04-07T16:09:49.409Z,99056.30
2019-04-07T16:12:08.535Z,99057.97
2019-04-07T16:14:36.345Z,99066.67
2019-04-07T16:17:05.671Z,99062.73
2019-04-07T16:19:40.047Z,99065.22
2019-04-07T16:22:04.305Z,99063.11
2019-04-07T16:24:32.649Z,99064.97
2019-04-07T16:27:03.293Z,99065.24
2019-04-07T16:29:29.550Z,99066.03
2019-04-07T16:31:58.592Z,99065.28
2019-04-07T16:34:28.360Z,99066.61
2019-04-07T16:36:58.234Z,99073.04
2019-04-07T16:39:24.676Z,99067.30
2019-04-07T16:41:51.727Z,99065.22
2019-04-07T16:44:19.063Z,99075.93
2019-04-07T16:46:46.408Z,99075.47
2019-04-07T16:49:16.569Z,99078.22
2019-04-07T16:51:42.865Z,99077.16
2019-04-07T16:54:10.405Z,99074.69
2019-04-07T16:56:39.173Z,99084.77
2019-04-07T16:59:09.684Z,99085.49
2019-04-07T17:01:35.570Z,99087.83
2019-04-07T17:04:03.077Z,99089.38
2019-04-07T17:06:34.696Z,99086.41
2019-04-07T17:09:00.431Z,99085.34
2019-04-07T17:11:27.964Z,99090.34
2019-04-07T17:13:55.876Z,99095.62
2019-04-07T17:16:25.005Z,99090.95
2019-04-07T17:18:55.398Z,99092.52
2019-04-07T17:21:22.352Z,99095.38
2019-04-07T17:23:53.201Z,99097.30
2019-04-07T17:26:18.788Z,99102.34
2019-04-07T17:28:49.515Z,99103.28
2019-04-07T17:31:17.591Z,99103.67
2019-04-07T17:33:47.013Z,99111.14
2019-04-07T17:36:17.526Z,99108.50
2019-04-07T17:39:08.523Z,99109.52
2019-04-07T17:41:37.107Z,99111.88
2019-04-07T17:44:35.121Z,99117.66
2019-04-07T17:47:41.539Z,99120.73
2019-04-07T17:50:40.559Z,99120.20
2019-04-07T17:53:26.523Z,99128.36
2019-04-07T17:56:16.582Z,99123.52
2019-04-07T17:59:08.739Z,99132.30
2019-04-07T18:01:55.465Z,99132.16
2019-04-07T18:04:50.131Z,99141.14
2019-04-07T18:07:36.140Z,99140.11
2019-04-07T18:10:22.521Z,99144.32
2019-04-07T18:13:21.734Z,99147.32
2019-04-07T18:16:05.114Z,99145.53
2019-04-07T18:18:54.214Z,99149.80
2019-04-07T18:21:38.653Z,99152.77
2019-04-07T18:24:34.125Z,99159.52
2019-04-07T18:27:21.166Z,99168.25
2019-04-07T18:30:08.427Z,99165.47
2019-04-07T18:32:57.617Z,99164.31
2019-04-07T18:35:52.142Z,99168.27
2019-04-07T18:38:33.068Z,99177.59
2019-04-07T18:41:23.987Z,99183.49
2019-04-07T18:44:38.330Z,99179.89
2019-04-07T18:47:15.130Z,99182.45
2019-04-07T18:50:12.168Z,99188.05
2019-04-07T18:53:02.027Z,99193.76
2019-04-07T18:55:49.002Z,99198.20
2019-04-07T18:58:35.742Z,99203.64
2019-04-07T19:01:27.208Z,99205.67
2019-04-07T19:04:08.951Z,99205.69
2019-04-07T19:06:52.647Z,99210.58
2019-04-07T19:09:35.783Z,99223.23
2019-04-07T19:12:20.100Z,99221.42
2019-04-07T19:15:22.894Z,99221.58
2019-04-07T19:18:08.076Z,99221.75
2019-04-07T19:20:53.570Z,99226.66
2019-04-07T19:23:37.535Z,99232.05
2019-04-07T19:26:23.521Z,99231.64
2019-04-07T19:29:06.372Z,99234.03
2019-04-07T19:32:09.497Z,99229.59
2019-04-07T19:35:04.604Z,99236.45
2019-04-07T19:37:47.263Z,99239.08
2019-04-07T19:40:34.461Z,99244.38
2019-04-07T19:43:30.413Z,99245.58
2019-04-07T19:46:13.332Z,99245.30
2019-04-07T19:48:59.035Z,99250.30
2019-04-07T19:51:46.997Z,99242.02
2019-04-07T19:54:39.897Z,99241.05
2019-04-07T19:57:27.795Z,99237.31
2019-04-07T20:00:25.777Z,99244.40
2019-04-07T20:03:13.446Z,99241.64
2019-04-07T20:05:58.719Z,99250.66
2019-04-07T20:08:51.551Z,99252.59
2019-04-07T20:11:38.609Z,99248.67
2019-04-07T20:14:46.578Z,99248.50
2019-04-07T20:17:29.484Z,99252.13
2019-04-07T20:20:10.988Z,99246.22
2019-04-07T20:22:58.861Z,99248.80
2019-04-07T20:25:59.370Z,99250.45
2019-04-07T20:28:47.884Z,99249.29
2019-04-07T20:31:36.458Z,99259.28
2019-04-07T20:34:15.128Z,99254.05
2019-04-07T20:36:51.672Z,99249.27
2019-04-07T20:39:44.100Z,99255.29
2019-04-07T20:42:34.669Z,99255.09
2019-04-07T20:45:24.307Z,99262.18
2019-04-07T20:48:09.769Z,99262.47
2019-04-07T20:51:02.573Z,99265.75
2019-04-07T20:54:03.711Z,99268.28
2019-04-07T20:56:58.492Z,99264.09
2019-04-07T20:59:48.369Z,99263.84
2019-04-07T21:02:25.220Z,99264.53
2019-04-07T21:05:17.541Z,99265.95
2019-04-07T21:08:02.841Z,99268.87
2019-04-07T21:10:54.305Z,99275.77
2019-04-07T21:13:44.216Z,99273.50
2019-04-07T21:16:31.280Z,99275.81
2019-04-07T21:19:36.499Z,99277.31
2019-04-07T21:22:19.475Z,99280.41
2019-04-07T21:25:09.323Z,99283.08
2019-04-07T21:27:44.918Z,99287.39
2019-04-07T21:30:34.549Z,99287.18
2019-04-07T21:33:23.663Z,99284.24
2019-04-07T21:36:06.380Z,99286.20
2019-04-07T21:39:05.736Z,99290.95
2019-04-07T21:41:59.167Z,99281.34
2019-04-07T21:44:45.853Z,99288.55
2019-04-07T21:47:33.092Z,99283.89
2019-04-07T21:50:20.842Z,99293.14
2019-04-07T21:53:12.169Z,99296.32
2019-04-07T21:56:06.381Z,99296.67
2019-04-07T21:59:08.504Z,99297.51
2019-04-07T22:01:59.216Z,99296.59
2019-04-07T22:04:46.050Z,99304.03
2019-04-07T22:07:35.582Z,99301.31
2019-04-07T22:10:05.286Z,99305.75
2019-04-07T22:12:33.866Z,99304.49
2019-04-07T22:15:02.469Z,99307.72
2019-04-07T22:17:32.602Z,99310.91
2019-04-07T22:20:04.793Z,99310.42
2019-04-07T22:22:31.871Z,99312.61
2019-04-07T22:24:59.923Z,99315.05
2019-04-07T22:27:28.565Z,99313.42
2019-04-07T22:29:59.457Z,99314.86
2019-04-07T22:32:26.801Z,99318.25
2019-04-07T22:34:54.493Z,99320.19
2019-04-07T22:37:22.459Z,99324.64
2019-04-07T22:39:52.744Z,99322.27
2019-04-07T22:42:22.462Z,99328.61
2019-04-07T22:44:53.801Z,99332.53
2019-04-07T22:47:22.292Z,99337.92
2019-04-07T22:49:52.710Z,99337.81
2019-04-07T22:52:20.540Z,99335.13
2019-04-07T22:54:47.925Z,99330.38
2019-04-07T22:57:15.462Z,99325.26
2019-04-07T22:59:42.952Z,99322.23
2019-04-07T23:02:10.320Z,99324.14
2019-04-07T23:04:38.419Z,99326.79
2019-04-07T23:07:06.140Z,99333.10
2019-04-07T23:09:35.228Z,99328.21
2019-04-07T23:12:03.291Z,99329.87
2019-04-07T23:14:31.670Z,99330.00
2019-04-07T23:16:59.006Z,99331.66
2019-04-07T23:19:26.995Z,99327.34
2019-04-07T23:21:54.245Z,99329.95
2019-04-07T23:24:21.637Z,99328.02
2019-04-07T23:26:48.999Z,99329.95
2019-04-07T23:29:16.244Z,99333.11
2019-04-07T23:31:44.037Z,99337.89
2019-04-07T23:34:11.738Z,99342.25
2019-04-07T23:36:38.892Z,99350.65
2019-04-07T23:39:06.404Z,99353.19
2019-04-07T23:41:34.048Z,99362.59
2019-04-07T23:44:01.267Z,99360.11
2019-04-07T23:46:28.570Z,99362.47
2019-04-07T23:48:56.049Z,99366.95
2019-04-07T23:51:23.284Z,99377.37
2019-04-07T23:54:12.572Z,99378.73
2019-04-07T23:56:43.479Z,99376.72
2019-04-07T23:59:11.902Z,99379.25
